Share

Caruthersville, MO (63830)

Dyersburg Municipal (KDYR) Elev 338 ft | 36.00 °N, 89.41 °W | Change Station
Active Advisory: Flood Advisory

Current weather conditions updated 11 minutes ago

Scattered Clouds
Scattered Clouds
63 °F
Feels Like 63 °F
N
0
Wind Variable Wind from North
Sunrise 6:21 AM
Sunset 7:35 PM
Moon Waning Gibbous

Today is forecast to be Warmer than yesterday.

Pressure 30.29 in
Visibility 10.0 miles
Clouds Scattered Clouds 7000 ft
Dew Point 43 °F
Humidity 48%
Rainfall 0.00 in
Snow Depth Not available.
UV 5 out of 16
Pollen 9.60 out of 12
Air Quality Not available.
Flu Activity Sporadic
METAR KDYR 181515Z 00000KT 10SM SCT070 17/06 A3029 RMK AO1

More Conditions Fewer Conditions

Pressure 30.29 in
Visibility 10.0 miles
Clouds Scattered Clouds 7000 ft
Dew Point 43 °F
Humidity 48%
Rainfall 0.00 in
Snow Depth Not available.
UV 5 out of 16
Pollen 9.60 out of 12
Air Quality Not available.
Flu Activity Sporadic
METAR KDYR 181515Z 00000KT 10SM SCT070 17/06 A3029 RMK AO1

More Conditions Fewer Conditions

10-Day Forecast

Almanac

Astronomy

Apr. 18, 2014 Rise Set
Actual Time 6:21 AM CDT 7:35 PM CDT
Civil Twilight 5:54 AM CDT 8:01 PM CDT
Nautical Twilight 5:22 AM CDT 8:33 PM CDT
Astronomical Twilight 4:49 AM CDT 9:06 PM CDT
Moon 11:16 PM CDT 8:47 AM CDT
Length of Visible Light 14h 07m
Length of Day
13h 13m
Tomorrow will be 2m 8s longer.
Waning Gibbous, 87% of the Moon is Illuminated
Today
Waning Gibbous
Apr 22
Last Quarter
Apr 29
New
May 6
First Quarter
May 14
Full

Today's Extremes

State Highs State Lows

Community

  • What's for Lunch?
    What's for Lunch?
  • SUNRISE THROUGH THE TREES.
    SUNRISE THROUGH THE TREES.
  • Dog Wood Blossoms
    Dog Wood Blossoms
  • Morning Light
    Morning Light
  • New Day
    New Day

WunderPhotos

Upload Photos

1,702,397 photos uploaded!

Nearby

Snow Depth

Station Depth Elevation
No new snow has been reported.

Coastal Water Temperatures

Place Temperature
No Stations Reporting

Earthquake Activity

City Distance Mag. Time & Date
No recent earthquake activity has been reported nearby.
Minimum magnitude displayed is 2.5.

Nearby Weather Stations

Station Location Temp. Dew Point Humidity Wind Precip. Elev Updated Type
RAWS DYERSBURG TN, Dyersburg, TN 57 °F 47 °F 68% NNW  at  4 mph 0.00 in / hr 208 ft 8:07 AM CDT MADIS
Peach Orchard, Gideon, MO 63.7 °F 50 °F 62% ENE  at  7.0 mph 0.00 in / hr 253 ft 10:26 AM CDT Rapid Fire
Kennett E911, Kennett, MO 65.7 °F 52 °F 61% North  at  10.0 mph 0.00 in / hr 269 ft 10:26 AM CDT Rapid Fire
KC0UFP WX, Kennett, MO 67.3 °F 52 °F 58% ENE  at  5.3 mph - / hr 259 ft 10:26 AM CDT Normal

Show More Stations Show Fewer Stations

What do you think?

We're not finished. Please let us know what you like, what you don't like, and what you are still missing.